createdAt,value
2019-02-11T00:04:45.897Z,4.43
2019-02-11T00:09:56.079Z,4.85
2019-02-11T00:14:58.614Z,4.35
2019-02-11T00:20:03.228Z,3.86
2019-02-11T00:25:13.941Z,3.80
2019-02-11T00:30:27.454Z,4.31
2019-02-11T00:35:30.313Z,4.44
2019-02-11T00:40:34.795Z,4.19
2019-02-11T00:45:36.427Z,4.33
2019-02-11T00:50:51.487Z,4.35
2019-02-11T00:55:45.703Z,4.53
2019-02-11T01:00:38.822Z,4.54
2019-02-11T01:05:53.278Z,4.55
2019-02-11T01:16:05.818Z,4.27
2019-02-11T01:21:22.323Z,4.48
2019-02-11T01:26:12.860Z,4.18
2019-02-11T01:36:19.266Z,4.37
2019-02-11T01:41:27.316Z,4.59
2019-02-11T01:46:27.469Z,4.44
2019-02-11T01:51:33.374Z,4.80
2019-02-11T01:56:35.741Z,4.13
2019-02-11T02:01:44.702Z,4.35
2019-02-11T02:06:34.535Z,4.41
2019-02-11T02:11:49.662Z,4.71
2019-02-11T02:16:46.229Z,4.56
2019-02-11T02:22:01.601Z,4.84
2019-02-11T02:26:55.813Z,4.59
2019-02-11T02:32:13.511Z,4.39
2019-02-11T02:37:12.107Z,4.59
2019-02-11T02:42:15.401Z,4.63
2019-02-11T02:47:19.350Z,5.47
2019-02-11T02:52:22.430Z,4.61
2019-02-11T02:57:23.542Z,4.77
2019-02-11T03:02:25.259Z,5.14
2019-02-11T03:07:25.539Z,5.19
2019-02-11T03:12:29.851Z,5.18
2019-02-11T03:17:30.259Z,5.43
2019-02-11T03:22:31.452Z,5.26
2019-02-11T03:27:32.406Z,4.82
2019-02-11T03:32:43.131Z,5.08
2019-02-11T03:37:35.366Z,5.26
2019-02-11T03:42:36.836Z,5.15
2019-02-11T03:47:39.606Z,5.14
2019-02-11T03:52:47.782Z,5.11
2019-02-11T03:57:50.979Z,5.42
2019-02-11T04:02:51.965Z,5.33
2019-02-11T04:08:02.287Z,5.07
2019-02-11T04:13:01.337Z,5.10
2019-02-11T04:18:03.898Z,5.31
2019-02-11T04:23:03.411Z,5.53
2019-02-11T04:28:13.129Z,5.22
2019-02-11T04:33:29.401Z,5.21
2019-02-11T04:38:29.079Z,6.04
2019-02-11T04:43:44.610Z,5.65
2019-02-11T04:48:48.150Z,5.73
2019-02-11T04:59:10.493Z,6.13
2019-02-11T05:04:09.101Z,6.22
2019-02-11T05:09:21.547Z,6.21
2019-02-11T05:14:09.656Z,6.97
2019-02-11T05:19:19.495Z,6.31
2019-02-11T05:24:31.248Z,5.91
2019-02-11T05:29:19.631Z,6.72
2019-02-11T05:34:28.743Z,6.21
2019-02-11T05:39:29.078Z,6.60
2019-02-11T05:44:38.350Z,6.82
2019-02-11T05:49:44.451Z,6.75
2019-02-11T05:54:48.065Z,7.05
2019-02-11T05:59:48.510Z,7.41
2019-02-11T06:04:55.245Z,5.67
2019-02-11T06:09:59.565Z,6.28
2019-02-11T06:15:11.264Z,7.00
2019-02-11T06:20:02.674Z,7.31
2019-02-11T06:25:07.025Z,7.21
2019-02-11T06:30:09.401Z,7.36
2019-02-11T06:35:22.734Z,7.35
2019-02-11T06:40:26.831Z,7.07
2019-02-11T06:45:30.587Z,6.78
2019-02-11T06:50:39.147Z,6.36
2019-02-11T06:55:41.915Z,6.33
2019-02-11T07:00:50.185Z,5.73
2019-02-11T07:05:52.086Z,5.50
2019-02-11T07:10:59.879Z,5.62
2019-02-11T07:16:07.057Z,5.77
2019-02-11T07:21:11.491Z,5.15
2019-02-11T07:26:20.878Z,5.82
2019-02-11T07:31:31.217Z,4.56
2019-02-11T07:36:19.181Z,3.83
2019-02-11T07:41:37.189Z,4.28
2019-02-11T07:46:34.571Z,3.62
2019-02-11T07:51:42.359Z,3.21
2019-02-11T07:56:46.844Z,3.98
2019-02-11T08:01:54.356Z,2.95
2019-02-11T08:06:57.148Z,3.47
2019-02-11T08:12:00.378Z,3.12
2019-02-11T08:16:59.951Z,3.24
2019-02-11T08:22:01.163Z,3.17
2019-02-11T08:27:01.457Z,3.07
2019-02-11T08:32:08.483Z,3.55
2019-02-11T08:37:16.016Z,3.36
2019-02-11T08:42:17.665Z,4.51
2019-02-11T08:47:19.797Z,4.02
2019-02-11T08:52:26.784Z,3.79
2019-02-11T08:57:36.728Z,3.25
2019-02-11T09:02:31.055Z,3.19
2019-02-11T09:07:35.250Z,3.33
2019-02-11T09:12:50.222Z,3.47
2019-02-11T09:17:44.500Z,3.81
2019-02-11T09:22:50.231Z,3.31
2019-02-11T09:27:48.190Z,3.40
2019-02-11T09:33:06.816Z,3.21
2019-02-11T09:38:05.310Z,3.57
2019-02-11T09:43:17.588Z,8.07
2019-02-11T09:48:23.855Z,5.16
2019-02-11T09:53:27.568Z,3.31
2019-02-11T09:58:29.476Z,3.59
2019-02-11T10:03:37.906Z,3.60
2019-02-11T10:08:39.444Z,3.73
2019-02-11T10:13:42.631Z,4.32
2019-02-11T10:18:43.943Z,3.71
2019-02-11T10:23:52.396Z,3.92
2019-02-11T10:28:51.583Z,3.58
2019-02-11T10:33:56.859Z,3.19
2019-02-11T10:38:55.888Z,3.51
2019-02-11T10:44:09.603Z,3.64
2019-02-11T10:49:10.095Z,3.60
2019-02-11T10:54:10.731Z,3.82
2019-02-11T10:59:11.457Z,3.52
2019-02-11T11:04:16.610Z,4.00
2019-02-11T11:09:17.607Z,3.66
2019-02-11T11:14:28.252Z,3.38
2019-02-11T11:19:29.485Z,3.15
2019-02-11T11:24:33.282Z,2.02
2019-02-11T11:29:35.616Z,3.31
2019-02-11T11:34:47.181Z,4.17
2019-02-11T11:39:39.134Z,3.17
2019-02-11T11:44:40.662Z,1.48
2019-02-11T11:49:44.029Z,1.78
2019-02-11T11:54:45.566Z,1.65
2019-02-11T12:04:55.336Z,1.77
2019-02-11T12:09:56.029Z,2.65
2019-02-11T12:14:58.824Z,2.85
2019-02-11T12:19:59.529Z,1.75
2019-02-11T12:25:02.403Z,2.13
2019-02-11T12:30:02.081Z,2.18
2019-02-11T12:35:34.319Z,2.63
2019-02-11T12:40:40.743Z,2.54
2019-02-11T12:45:42.115Z,2.04
2019-02-11T12:50:44.685Z,1.98
2019-02-11T12:55:49.875Z,1.63
2019-02-11T13:01:03.624Z,1.51
2019-02-11T13:05:59.108Z,1.67
2019-02-11T13:11:07.460Z,2.07
2019-02-11T13:16:10.678Z,2.27
2019-02-11T13:26:14.585Z,2.66
2019-02-11T13:31:22.345Z,2.71
2019-02-11T13:36:23.800Z,2.93
2019-02-11T13:41:18.303Z,2.85
2019-02-11T13:46:31.466Z,3.30
2019-02-11T13:51:23.572Z,3.61
2019-02-11T13:56:28.131Z,2.98
2019-02-11T14:01:44.517Z,4.78
2019-02-11T14:06:32.376Z,3.45
2019-02-11T14:11:42.970Z,2.58
2019-02-11T14:16:44.946Z,4.59
2019-02-11T14:21:53.673Z,2.57
2019-02-11T14:26:55.444Z,2.25
2019-02-11T14:32:00.173Z,2.16
2019-02-11T14:37:07.300Z,2.60
2019-02-11T14:42:14.376Z,2.72
2019-02-11T14:47:12.561Z,2.26
2019-02-11T14:52:18.731Z,2.26
2019-02-11T14:57:20.980Z,1.75
2019-02-11T15:02:24.323Z,2.16
2019-02-11T15:07:34.116Z,2.06
2019-02-11T15:12:25.686Z,2.85
2019-02-11T15:17:29.736Z,2.57
2019-02-11T15:22:32.250Z,2.65
2019-02-11T15:27:33.982Z,2.42
2019-02-11T15:32:43.027Z,2.91
2019-02-11T15:37:42.594Z,4.38
2019-02-11T15:42:56.446Z,3.65
2019-02-11T15:47:57.646Z,2.43
2019-02-11T15:53:14.836Z,2.04
2019-02-11T15:58:12.114Z,2.50
2019-02-11T16:03:31.660Z,1.57
2019-02-11T16:08:17.558Z,1.84
2019-02-11T16:13:16.436Z,2.03
2019-02-11T16:18:32.260Z,2.34
2019-02-11T16:23:39.865Z,2.41
2019-02-11T16:28:38.612Z,1.88
2019-02-11T16:33:46.284Z,1.54
2019-02-11T16:38:44.105Z,2.69
2019-02-11T16:43:57.125Z,2.00
2019-02-11T16:49:00.562Z,1.13
2019-02-11T16:54:11.019Z,3.33
2019-02-11T16:59:11.928Z,1.40
2019-02-11T17:04:18.246Z,2.46
2019-02-11T17:09:22.215Z,2.28
2019-02-11T17:14:31.909Z,1.97
2019-02-11T17:19:37.260Z,5.36
2019-02-11T17:24:53.948Z,7.97
2019-02-11T17:29:44.794Z,5.54
2019-02-11T17:34:49.077Z,3.84
2019-02-11T17:39:47.904Z,5.35
2019-02-11T17:44:56.699Z,12.89
2019-02-11T17:50:18.224Z,6.62
2019-02-11T17:55:20.951Z,2.89
2019-02-11T18:00:23.458Z,9.12
2019-02-11T18:05:28.834Z,4.36
2019-02-11T18:10:28.822Z,5.35
2019-02-11T18:15:35.327Z,2.79
2019-02-11T18:20:39.154Z,4.70
2019-02-11T18:25:55.494Z,7.40
2019-02-11T18:30:59.345Z,14.66
2019-02-11T18:35:45.962Z,5.41
2019-02-11T18:40:58.851Z,7.24
2019-02-11T18:46:00.390Z,8.01
2019-02-11T18:51:06.048Z,10.45
2019-02-11T19:06:11.672Z,4.56
2019-02-11T19:11:18.955Z,3.74
2019-02-11T19:16:23.806Z,3.73
2019-02-11T19:21:26.950Z,3.91
2019-02-11T19:31:28.840Z,5.29
2019-02-11T19:36:35.255Z,6.86
2019-02-11T19:41:37.609Z,5.99
2019-02-11T19:46:49.737Z,5.93
2019-02-11T19:51:48.585Z,6.90
2019-02-11T19:56:49.137Z,2.83
2019-02-11T20:02:05.871Z,3.36
2019-02-11T20:06:53.293Z,4.80
2019-02-11T20:12:05.914Z,5.68
2019-02-11T20:17:12.508Z,3.92
2019-02-11T20:22:16.481Z,4.05
2019-02-11T20:37:36.186Z,3.31
2019-02-11T20:52:47.708Z,3.93
2019-02-11T20:57:49.929Z,3.90
2019-02-11T21:02:57.087Z,4.08
2019-02-11T21:07:55.925Z,4.48
2019-02-11T21:13:17.364Z,3.86
2019-02-11T21:18:11.395Z,4.77
2019-02-11T21:23:11.677Z,4.07
2019-02-11T21:28:10.872Z,3.53
2019-02-11T21:33:29.438Z,3.58
2019-02-11T21:48:39.503Z,2.89
2019-02-11T21:58:48.452Z,4.28
2019-02-11T22:08:48.407Z,5.82
2019-02-11T22:13:54.120Z,6.07
2019-02-11T22:23:55.079Z,7.54
2019-02-11T22:34:03.349Z,2.29
2019-02-11T23:14:47.724Z,2.79
